sensor_id;sensor_type;location;lat;lon;timestamp;temperature;humidity
26254;DHT22;53339;51.378;0.094;2022-09-24T00:01:37;12.50;82.00
26254;DHT22;53339;51.378;0.094;2022-09-24T00:04:07;12.40;82.00
26254;DHT22;53339;51.378;0.094;2022-09-24T00:06:41;12.40;82.10
26254;DHT22;53339;51.378;0.094;2022-09-24T00:09:11;12.30;82.20
26254;DHT22;53339;51.378;0.094;2022-09-24T00:11:39;12.30;82.30
26254;DHT22;53339;51.378;0.094;2022-09-24T00:14:06;12.20;82.30
26254;DHT22;53339;51.378;0.094;2022-09-24T00:16:35;12.20;82.40
26254;DHT22;53339;51.378;0.094;2022-09-24T00:19:03;12.10;82.50
26254;DHT22;53339;51.378;0.094;2022-09-24T00:21:33;12.10;82.60
26254;DHT22;53339;51.378;0.094;2022-09-24T00:24:07;12.00;82.60
26254;DHT22;53339;51.378;0.094;2022-09-24T00:26:35;11.90;82.70
26254;DHT22;53339;51.378;0.094;2022-09-24T00:29:20;11.90;82.80
26254;DHT22;53339;51.378;0.094;2022-09-24T00:31:48;11.80;82.90
26254;DHT22;53339;51.378;0.094;2022-09-24T00:34:17;11.70;83.00
26254;DHT22;53339;51.378;0.094;2022-09-24T00:36:45;11.70;83.00
26254;DHT22;53339;51.378;0.094;2022-09-24T00:39:13;11.70;83.20
26254;DHT22;53339;51.378;0.094;2022-09-24T00:41:41;11.70;83.10
26254;DHT22;53339;51.378;0.094;2022-09-24T00:47:32;11.60;83.30
26254;DHT22;53339;51.378;0.094;2022-09-24T00:55:22;11.60;83.50
26254;DHT22;53339;51.378;0.094;2022-09-24T00:57:58;11.50;83.60
26254;DHT22;53339;51.378;0.094;2022-09-24T01:00:26;11.60;83.60
26254;DHT22;53339;51.378;0.094;2022-09-24T01:02:59;11.50;83.70
26254;DHT22;53339;51.378;0.094;2022-09-24T01:05:28;11.50;83.70
26254;DHT22;53339;51.378;0.094;2022-09-24T01:07:55;11.50;83.80
26254;DHT22;53339;51.378;0.094;2022-09-24T01:13:53;11.50;84.00
26254;DHT22;53339;51.378;0.094;2022-09-24T01:19:27;11.50;83.90
26254;DHT22;53339;51.378;0.094;2022-09-24T01:27:43;11.40;84.10
26254;DHT22;53339;51.378;0.094;2022-09-24T01:30:13;11.40;84.20
26254;DHT22;53339;51.378;0.094;2022-09-24T01:32:49;11.40;84.20
26254;DHT22;53339;51.378;0.094;2022-09-24T01:35:41;11.40;84.30
26254;DHT22;53339;51.378;0.094;2022-09-24T01:38:18;11.50;84.30
26254;DHT22;53339;51.378;0.094;2022-09-24T01:40:48;11.50;84.50
26254;DHT22;53339;51.378;0.094;2022-09-24T01:43:20;11.50;84.50
26254;DHT22;53339;51.378;0.094;2022-09-24T01:45:48;11.60;84.50
26254;DHT22;53339;51.378;0.094;2022-09-24T01:48:16;11.60;84.50
26254;DHT22;53339;51.378;0.094;2022-09-24T01:51:05;11.60;84.40
26254;DHT22;53339;51.378;0.094;2022-09-24T01:53:50;11.60;84.30
26254;DHT22;53339;51.378;0.094;2022-09-24T01:56:29;11.50;84.30
26254;DHT22;53339;51.378;0.094;2022-09-24T02:04:31;11.30;84.70
26254;DHT22;53339;51.378;0.094;2022-09-24T02:07:03;11.40;84.70
26254;DHT22;53339;51.378;0.094;2022-09-24T02:09:37;11.30;84.60
26254;DHT22;53339;51.378;0.094;2022-09-24T02:14:52;11.20;84.70
26254;DHT22;53339;51.378;0.094;2022-09-24T02:17:23;11.10;84.70
26254;DHT22;53339;51.378;0.094;2022-09-24T02:19:52;11.10;84.80
26254;DHT22;53339;51.378;0.094;2022-09-24T02:22:21;11.10;84.90
26254;DHT22;53339;51.378;0.094;2022-09-24T02:24:53;11.10;84.90
26254;DHT22;53339;51.378;0.094;2022-09-24T02:27:24;11.00;85.00
26254;DHT22;53339;51.378;0.094;2022-09-24T02:29:56;11.00;85.10
26254;DHT22;53339;51.378;0.094;2022-09-24T02:32:27;11.00;85.20
26254;DHT22;53339;51.378;0.094;2022-09-24T02:34:59;11.00;85.40
26254;DHT22;53339;51.378;0.094;2022-09-24T02:37:34;11.10;85.60
26254;DHT22;53339;51.378;0.094;2022-09-24T02:40:08;11.10;85.80
26254;DHT22;53339;51.378;0.094;2022-09-24T02:42:36;11.20;85.90
26254;DHT22;53339;51.378;0.094;2022-09-24T02:45:04;11.40;86.00
26254;DHT22;53339;51.378;0.094;2022-09-24T02:47:32;11.50;86.10
26254;DHT22;53339;51.378;0.094;2022-09-24T02:50:00;11.60;86.20
26254;DHT22;53339;51.378;0.094;2022-09-24T02:52:27;11.70;86.10
26254;DHT22;53339;51.378;0.094;2022-09-24T02:54:55;11.70;86.00
26254;DHT22;53339;51.378;0.094;2022-09-24T02:57:22;11.80;86.00
26254;DHT22;53339;51.378;0.094;2022-09-24T02:59:50;11.90;85.90
26254;DHT22;53339;51.378;0.094;2022-09-24T03:02:17;11.90;85.90
26254;DHT22;53339;51.378;0.094;2022-09-24T03:04:45;12.00;85.90
26254;DHT22;53339;51.378;0.094;2022-09-24T03:07:13;12.00;85.80
26254;DHT22;53339;51.378;0.094;2022-09-24T03:09:40;12.00;85.80
26254;DHT22;53339;51.378;0.094;2022-09-24T03:12:08;12.00;85.80
26254;DHT22;53339;51.378;0.094;2022-09-24T03:14:35;12.10;85.80
26254;DHT22;53339;51.378;0.094;2022-09-24T03:17:03;12.10;85.80
26254;DHT22;53339;51.378;0.094;2022-09-24T03:19:30;12.10;85.90
26254;DHT22;53339;51.378;0.094;2022-09-24T03:21:58;12.10;85.90
26254;DHT22;53339;51.378;0.094;2022-09-24T03:24:25;12.20;85.90
26254;DHT22;53339;51.378;0.094;2022-09-24T03:26:53;12.20;85.80
26254;DHT22;53339;51.378;0.094;2022-09-24T03:29:20;12.20;85.90
26254;DHT22;53339;51.378;0.094;2022-09-24T03:32:08;12.20;86.00
26254;DHT22;53339;51.378;0.094;2022-09-24T03:34:35;12.20;86.00
26254;DHT22;53339;51.378;0.094;2022-09-24T03:37:03;12.20;85.90
26254;DHT22;53339;51.378;0.094;2022-09-24T03:39:30;12.20;86.00
26254;DHT22;53339;51.378;0.094;2022-09-24T03:41:57;12.20;86.00
26254;DHT22;53339;51.378;0.094;2022-09-24T03:44:25;12.20;86.10
26254;DHT22;53339;51.378;0.094;2022-09-24T03:46:53;12.30;86.10
26254;DHT22;53339;51.378;0.094;2022-09-24T03:49:21;12.30;86.10
26254;DHT22;53339;51.378;0.094;2022-09-24T03:51:49;12.30;86.10
26254;DHT22;53339;51.378;0.094;2022-09-24T03:54:17;12.30;86.10
26254;DHT22;53339;51.378;0.094;2022-09-24T03:56:44;12.40;86.10
26254;DHT22;53339;51.378;0.094;2022-09-24T03:59:12;12.40;86.10
26254;DHT22;53339;51.378;0.094;2022-09-24T04:01:39;12.40;86.10
26254;DHT22;53339;51.378;0.094;2022-09-24T04:04:07;12.30;86.00
26254;DHT22;53339;51.378;0.094;2022-09-24T04:06:34;12.40;86.10
26254;DHT22;53339;51.378;0.094;2022-09-24T04:09:02;12.40;86.10
26254;DHT22;53339;51.378;0.094;2022-09-24T04:11:29;12.40;86.10
26254;DHT22;53339;51.378;0.094;2022-09-24T04:13:57;12.40;86.10
26254;DHT22;53339;51.378;0.094;2022-09-24T04:16:24;12.50;86.10
26254;DHT22;53339;51.378;0.094;2022-09-24T04:18:52;12.50;86.20
26254;DHT22;53339;51.378;0.094;2022-09-24T04:21:20;12.50;86.20
26254;DHT22;53339;51.378;0.094;2022-09-24T04:23:47;12.50;86.10
26254;DHT22;53339;51.378;0.094;2022-09-24T04:26:15;12.50;86.10
26254;DHT22;53339;51.378;0.094;2022-09-24T04:28:43;12.50;86.10
26254;DHT22;53339;51.378;0.094;2022-09-24T04:31:10;12.50;86.20
26254;DHT22;53339;51.378;0.094;2022-09-24T04:33:38;12.60;86.20
26254;DHT22;53339;51.378;0.094;2022-09-24T04:36:06;12.60;86.20
26254;DHT22;53339;51.378;0.094;2022-09-24T04:38:34;12.60;86.20
26254;DHT22;53339;51.378;0.094;2022-09-24T04:41:06;12.60;86.10
26254;DHT22;53339;51.378;0.094;2022-09-24T04:43:34;12.60;86.10
26254;DHT22;53339;51.378;0.094;2022-09-24T04:46:04;12.60;85.90
26254;DHT22;53339;51.378;0.094;2022-09-24T04:48:31;12.60;86.00
26254;DHT22;53339;51.378;0.094;2022-09-24T04:50:59;12.60;86.00
26254;DHT22;53339;51.378;0.094;2022-09-24T04:53:28;12.60;86.00
26254;DHT22;53339;51.378;0.094;2022-09-24T04:55:55;12.60;86.00
26254;DHT22;53339;51.378;0.094;2022-09-24T04:58:23;12.60;86.00
26254;DHT22;53339;51.378;0.094;2022-09-24T05:00:51;12.50;86.00
26254;DHT22;53339;51.378;0.094;2022-09-24T05:03:19;12.50;86.00
26254;DHT22;53339;51.378;0.094;2022-09-24T05:05:50;12.40;85.80
26254;DHT22;53339;51.378;0.094;2022-09-24T05:08:17;12.40;85.90
26254;DHT22;53339;51.378;0.094;2022-09-24T05:10:45;12.40;85.90
26254;DHT22;53339;51.378;0.094;2022-09-24T05:13:12;12.30;85.90
26254;DHT22;53339;51.378;0.094;2022-09-24T05:15:39;12.20;86.00
26254;DHT22;53339;51.378;0.094;2022-09-24T05:18:09;12.20;86.10
26254;DHT22;53339;51.378;0.094;2022-09-24T05:20:37;12.20;86.10
26254;DHT22;53339;51.378;0.094;2022-09-24T05:23:04;12.10;85.90
26254;DHT22;53339;51.378;0.094;2022-09-24T05:25:32;12.00;85.80
26254;DHT22;53339;51.378;0.094;2022-09-24T05:27:59;11.90;85.70
26254;DHT22;53339;51.378;0.094;2022-09-24T05:30:27;11.70;85.70
26254;DHT22;53339;51.378;0.094;2022-09-24T05:32:54;11.70;85.80
26254;DHT22;53339;51.378;0.094;2022-09-24T05:35:23;11.60;86.10
26254;DHT22;53339;51.378;0.094;2022-09-24T05:37:50;11.50;86.20
26254;DHT22;53339;51.378;0.094;2022-09-24T05:40:20;11.50;86.10
26254;DHT22;53339;51.378;0.094;2022-09-24T05:43:07;11.40;86.10
26254;DHT22;53339;51.378;0.094;2022-09-24T05:45:34;11.30;86.10
26254;DHT22;53339;51.378;0.094;2022-09-24T05:48:02;11.20;86.10
26254;DHT22;53339;51.378;0.094;2022-09-24T05:50:30;11.10;86.10
26254;DHT22;53339;51.378;0.094;2022-09-24T05:53:02;11.00;86.20
26254;DHT22;53339;51.378;0.094;2022-09-24T05:55:30;11.00;86.20
26254;DHT22;53339;51.378;0.094;2022-09-24T05:58:06;10.90;86.30
26254;DHT22;53339;51.378;0.094;2022-09-24T06:00:35;10.90;86.40
26254;DHT22;53339;51.378;0.094;2022-09-24T06:03:05;10.90;86.50
26254;DHT22;53339;51.378;0.094;2022-09-24T06:05:34;10.80;86.50
26254;DHT22;53339;51.378;0.094;2022-09-24T06:08:03;10.80;86.50
26254;DHT22;53339;51.378;0.094;2022-09-24T06:10:31;10.80;86.50
26254;DHT22;53339;51.378;0.094;2022-09-24T06:12:58;10.80;86.50
26254;DHT22;53339;51.378;0.094;2022-09-24T06:15:26;10.70;86.50
26254;DHT22;53339;51.378;0.094;2022-09-24T06:17:54;10.80;86.50
26254;DHT22;53339;51.378;0.094;2022-09-24T06:20:22;10.80;86.50
26254;DHT22;53339;51.378;0.094;2022-09-24T06:22:49;10.70;86.50
26254;DHT22;53339;51.378;0.094;2022-09-24T06:25:17;10.70;86.60
26254;DHT22;53339;51.378;0.094;2022-09-24T06:27:44;10.80;86.70
26254;DHT22;53339;51.378;0.094;2022-09-24T06:30:11;10.70;86.80
26254;DHT22;53339;51.378;0.094;2022-09-24T06:32:39;10.80;86.80
26254;DHT22;53339;51.378;0.094;2022-09-24T06:35:07;10.90;86.80
26254;DHT22;53339;51.378;0.094;2022-09-24T06:37:35;10.90;86.90
26254;DHT22;53339;51.378;0.094;2022-09-24T06:40:02;11.00;86.80
26254;DHT22;53339;51.378;0.094;2022-09-24T06:42:30;11.00;86.80
26254;DHT22;53339;51.378;0.094;2022-09-24T06:44:57;11.00;86.80
26254;DHT22;53339;51.378;0.094;2022-09-24T06:47:25;11.10;86.70
26254;DHT22;53339;51.378;0.094;2022-09-24T06:49:52;11.10;86.60
26254;DHT22;53339;51.378;0.094;2022-09-24T06:52:20;11.10;86.70
26254;DHT22;53339;51.378;0.094;2022-09-24T06:54:49;11.10;86.70
26254;DHT22;53339;51.378;0.094;2022-09-24T06:57:17;11.10;86.70
26254;DHT22;53339;51.378;0.094;2022-09-24T06:59:44;11.10;86.70
26254;DHT22;53339;51.378;0.094;2022-09-24T07:02:12;11.20;86.80
26254;DHT22;53339;51.378;0.094;2022-09-24T07:04:39;11.30;86.90
26254;DHT22;53339;51.378;0.094;2022-09-24T07:07:06;11.40;86.90
26254;DHT22;53339;51.378;0.094;2022-09-24T07:09:52;11.50;86.90
26254;DHT22;53339;51.378;0.094;2022-09-24T07:12:20;11.50;86.80
26254;DHT22;53339;51.378;0.094;2022-09-24T07:14:47;11.60;86.80
26254;DHT22;53339;51.378;0.094;2022-09-24T07:17:15;11.70;86.70
26254;DHT22;53339;51.378;0.094;2022-09-24T07:19:43;11.70;86.60
26254;DHT22;53339;51.378;0.094;2022-09-24T07:22:10;11.80;86.50
26254;DHT22;53339;51.378;0.094;2022-09-24T07:24:38;11.80;86.40
26254;DHT22;53339;51.378;0.094;2022-09-24T07:27:06;11.80;86.40
26254;DHT22;53339;51.378;0.094;2022-09-24T07:29:34;11.90;86.30
26254;DHT22;53339;51.378;0.094;2022-09-24T07:32:02;11.90;86.10
26254;DHT22;53339;51.378;0.094;2022-09-24T07:34:30;11.80;86.00
26254;DHT22;53339;51.378;0.094;2022-09-24T07:36:58;11.80;85.90
26254;DHT22;53339;51.378;0.094;2022-09-24T07:39:25;11.90;86.10
26254;DHT22;53339;51.378;0.094;2022-09-24T07:41:53;11.90;86.10
26254;DHT22;53339;51.378;0.094;2022-09-24T07:44:21;12.00;86.00
26254;DHT22;53339;51.378;0.094;2022-09-24T07:46:51;12.10;85.80
26254;DHT22;53339;51.378;0.094;2022-09-24T07:49:19;12.10;86.00
26254;DHT22;53339;51.378;0.094;2022-09-24T07:51:47;12.20;85.80
26254;DHT22;53339;51.378;0.094;2022-09-24T07:54:14;12.20;85.80
26254;DHT22;53339;51.378;0.094;2022-09-24T07:56:43;12.30;85.70
26254;DHT22;53339;51.378;0.094;2022-09-24T07:59:11;12.40;85.60
26254;DHT22;53339;51.378;0.094;2022-09-24T08:01:38;12.50;85.60
26254;DHT22;53339;51.378;0.094;2022-09-24T08:04:07;12.60;85.40
26254;DHT22;53339;51.378;0.094;2022-09-24T08:06:35;12.70;85.20
26254;DHT22;53339;51.378;0.094;2022-09-24T08:09:05;12.80;85.30
26254;DHT22;53339;51.378;0.094;2022-09-24T08:11:34;12.90;85.20
26254;DHT22;53339;51.378;0.094;2022-09-24T08:14:02;12.90;85.00
26254;DHT22;53339;51.378;0.094;2022-09-24T08:16:29;13.00;84.90
26254;DHT22;53339;51.378;0.094;2022-09-24T08:18:57;13.10;84.80
26254;DHT22;53339;51.378;0.094;2022-09-24T08:21:24;13.10;84.80
26254;DHT22;53339;51.378;0.094;2022-09-24T08:23:52;13.20;84.80
26254;DHT22;53339;51.378;0.094;2022-09-24T08:26:19;13.30;84.50
26254;DHT22;53339;51.378;0.094;2022-09-24T08:28:48;13.30;84.00
26254;DHT22;53339;51.378;0.094;2022-09-24T08:31:18;13.30;83.90
26254;DHT22;53339;51.378;0.094;2022-09-24T08:33:46;13.30;83.70
26254;DHT22;53339;51.378;0.094;2022-09-24T08:36:17;13.30;83.90
26254;DHT22;53339;51.378;0.094;2022-09-24T08:38:47;13.40;84.00
26254;DHT22;53339;51.378;0.094;2022-09-24T08:41:28;13.50;83.60
26254;DHT22;53339;51.378;0.094;2022-09-24T08:44:45;13.50;83.40
26254;DHT22;53339;51.378;0.094;2022-09-24T08:47:58;13.60;83.30
26254;DHT22;53339;51.378;0.094;2022-09-24T08:50:20;13.60;83.30
26254;DHT22;53339;51.378;0.094;2022-09-24T08:53:21;13.60;82.80
26254;DHT22;53339;51.378;0.094;2022-09-24T08:55:55;13.70;83.20
26254;DHT22;53339;51.378;0.094;2022-09-24T08:58:33;13.70;82.70
26254;DHT22;53339;51.378;0.094;2022-09-24T09:08:58;13.70;82.60
26254;DHT22;53339;51.378;0.094;2022-09-24T09:11:35;13.70;82.30
26254;DHT22;53339;51.378;0.094;2022-09-24T09:14:15;13.70;82.40
26254;DHT22;53339;51.378;0.094;2022-09-24T09:17:09;13.80;82.40
26254;DHT22;53339;51.378;0.094;2022-09-24T09:19:40;13.90;82.20
26254;DHT22;53339;51.378;0.094;2022-09-24T09:22:13;13.90;82.20
26254;DHT22;53339;51.378;0.094;2022-09-24T09:24:45;14.00;82.10
26254;DHT22;53339;51.378;0.094;2022-09-24T09:27:15;14.20;82.20
26254;DHT22;53339;51.378;0.094;2022-09-24T09:29:47;14.20;82.10
26254;DHT22;53339;51.378;0.094;2022-09-24T09:35:15;14.50;81.80
26254;DHT22;53339;51.378;0.094;2022-09-24T09:43:07;14.50;81.30
26254;DHT22;53339;51.378;0.094;2022-09-24T09:48:24;14.60;81.20
26254;DHT22;53339;51.378;0.094;2022-09-24T09:50:58;14.60;81.10
26254;DHT22;53339;51.378;0.094;2022-09-24T09:53:28;14.60;81.30
26254;DHT22;53339;51.378;0.094;2022-09-24T09:56:00;14.70;81.30
26254;DHT22;53339;51.378;0.094;2022-09-24T09:58:36;14.90;81.30
26254;DHT22;53339;51.378;0.094;2022-09-24T10:01:13;14.90;80.60
26254;DHT22;53339;51.378;0.094;2022-09-24T10:06:27;15.00;80.40
26254;DHT22;53339;51.378;0.094;2022-09-24T10:09:14;15.10;80.20
26254;DHT22;53339;51.378;0.094;2022-09-24T10:11:42;15.10;80.30
26254;DHT22;53339;51.378;0.094;2022-09-24T10:14:11;15.10;80.20
26254;DHT22;53339;51.378;0.094;2022-09-24T10:16:44;15.10;80.00
26254;DHT22;53339;51.378;0.094;2022-09-24T10:19:25;15.10;80.00
26254;DHT22;53339;51.378;0.094;2022-09-24T10:21:54;15.10;79.80
26254;DHT22;53339;51.378;0.094;2022-09-24T10:24:25;15.10;79.70
26254;DHT22;53339;51.378;0.094;2022-09-24T10:26:53;15.10;79.60
26254;DHT22;53339;51.378;0.094;2022-09-24T10:29:29;15.10;79.10
26254;DHT22;53339;51.378;0.094;2022-09-24T10:32:19;15.20;79.00
26254;DHT22;53339;51.378;0.094;2022-09-24T10:34:56;15.30;79.30
26254;DHT22;53339;51.378;0.094;2022-09-24T10:37:25;15.40;79.20
26254;DHT22;53339;51.378;0.094;2022-09-24T10:40:00;15.60;78.80
26254;DHT22;53339;51.378;0.094;2022-09-24T10:42:29;15.70;78.80
26254;DHT22;53339;51.378;0.094;2022-09-24T10:44:59;15.90;78.30
26254;DHT22;53339;51.378;0.094;2022-09-24T10:47:51;16.10;78.10
26254;DHT22;53339;51.378;0.094;2022-09-24T10:50:24;16.20;77.60
26254;DHT22;53339;51.378;0.094;2022-09-24T10:53:00;16.30;76.70
26254;DHT22;53339;51.378;0.094;2022-09-24T10:55:39;16.50;76.40
26254;DHT22;53339;51.378;0.094;2022-09-24T11:04:17;17.10;75.50
26254;DHT22;53339;51.378;0.094;2022-09-24T11:06:56;17.10;74.90
26254;DHT22;53339;51.378;0.094;2022-09-24T11:09:41;17.10;73.70
26254;DHT22;53339;51.378;0.094;2022-09-24T11:12:25;17.10;74.30
26254;DHT22;53339;51.378;0.094;2022-09-24T11:15:13;17.10;75.00
26254;DHT22;53339;51.378;0.094;2022-09-24T11:20:43;17.40;74.80
26254;DHT22;53339;51.378;0.094;2022-09-24T11:29:22;18.00;72.00
26254;DHT22;53339;51.378;0.094;2022-09-24T11:34:33;18.10;67.50
26254;DHT22;53339;51.378;0.094;2022-09-24T11:37:32;18.10;68.50
26254;DHT22;53339;51.378;0.094;2022-09-24T11:46:18;17.60;68.10
26254;DHT22;53339;51.378;0.094;2022-09-24T11:49:22;17.50;68.30
26254;DHT22;53339;51.378;0.094;2022-09-24T11:55:14;17.40;67.30
26254;DHT22;53339;51.378;0.094;2022-09-24T11:58:40;17.40;66.40
26254;DHT22;53339;51.378;0.094;2022-09-24T12:01:11;17.30;66.90
26254;DHT22;53339;51.378;0.094;2022-09-24T12:03:59;17.20;67.50
26254;DHT22;53339;51.378;0.094;2022-09-24T12:06:38;17.40;68.30
26254;DHT22;53339;51.378;0.094;2022-09-24T12:12:15;17.70;66.10
26254;DHT22;53339;51.378;0.094;2022-09-24T12:14:57;17.70;66.30
26254;DHT22;53339;51.378;0.094;2022-09-24T12:17:32;17.70;66.20
26254;DHT22;53339;51.378;0.094;2022-09-24T12:20:27;17.60;65.90
26254;DHT22;53339;51.378;0.094;2022-09-24T12:23:11;17.60;66.00
26254;DHT22;53339;51.378;0.094;2022-09-24T12:25:44;17.70;66.10
26254;DHT22;53339;51.378;0.094;2022-09-24T12:28:15;17.90;65.60
26254;DHT22;53339;51.378;0.094;2022-09-24T12:31:25;18.20;65.20
26254;DHT22;53339;51.378;0.094;2022-09-24T12:37:11;18.70;62.80
26254;DHT22;53339;51.378;0.094;2022-09-24T12:42:36;19.00;62.20
26254;DHT22;53339;51.378;0.094;2022-09-24T12:45:12;19.10;62.10
26254;DHT22;53339;51.378;0.094;2022-09-24T12:47:49;19.10;62.20
26254;DHT22;53339;51.378;0.094;2022-09-24T12:50:32;19.10;61.00
26254;DHT22;53339;51.378;0.094;2022-09-24T12:53:00;19.10;62.00
26254;DHT22;53339;51.378;0.094;2022-09-24T12:55:30;19.20;59.80
26254;DHT22;53339;51.378;0.094;2022-09-24T12:58:03;19.40;60.70
26254;DHT22;53339;51.378;0.094;2022-09-24T13:00:44;19.50;58.70
26254;DHT22;53339;51.378;0.094;2022-09-24T13:03:36;19.50;58.00
26254;DHT22;53339;51.378;0.094;2022-09-24T13:08:57;19.20;58.30
26254;DHT22;53339;51.378;0.094;2022-09-24T13:11:34;19.30;59.20
26254;DHT22;53339;51.378;0.094;2022-09-24T13:16:42;19.60;58.80
26254;DHT22;53339;51.378;0.094;2022-09-24T13:19:27;19.60;58.10
26254;DHT22;53339;51.378;0.094;2022-09-24T13:21:58;19.60;57.50
26254;DHT22;53339;51.378;0.094;2022-09-24T13:24:32;19.70;56.80
26254;DHT22;53339;51.378;0.094;2022-09-24T13:30:02;19.90;56.20
26254;DHT22;53339;51.378;0.094;2022-09-24T13:32:33;20.10;54.70
26254;DHT22;53339;51.378;0.094;2022-09-24T13:35:07;20.20;56.10
26254;DHT22;53339;51.378;0.094;2022-09-24T13:37:41;20.20;56.00
26254;DHT22;53339;51.378;0.094;2022-09-24T13:40:21;20.20;56.80
26254;DHT22;53339;51.378;0.094;2022-09-24T13:43:01;20.20;55.90
26254;DHT22;53339;51.378;0.094;2022-09-24T13:45:31;20.30;56.20
26254;DHT22;53339;51.378;0.094;2022-09-24T13:48:04;20.50;56.10
26254;DHT22;53339;51.378;0.094;2022-09-24T13:50:44;20.60;55.80
26254;DHT22;53339;51.378;0.094;2022-09-24T13:55:51;21.20;55.70
26254;DHT22;53339;51.378;0.094;2022-09-24T13:58:35;21.40;54.90
26254;DHT22;53339;51.378;0.094;2022-09-24T14:03:39;21.50;54.70
26254;DHT22;53339;51.378;0.094;2022-09-24T14:06:13;21.30;53.50
26254;DHT22;53339;51.378;0.094;2022-09-24T14:08:43;20.90;54.10
26254;DHT22;53339;51.378;0.094;2022-09-24T14:11:19;20.70;54.00
26254;DHT22;53339;51.378;0.094;2022-09-24T14:13:47;20.80;53.20
26254;DHT22;53339;51.378;0.094;2022-09-24T14:16:22;21.20;53.80
26254;DHT22;53339;51.378;0.094;2022-09-24T14:19:04;21.70;52.70
26254;DHT22;53339;51.378;0.094;2022-09-24T14:21:59;21.80;50.60
26254;DHT22;53339;51.378;0.094;2022-09-24T14:24:34;21.40;50.90
26254;DHT22;53339;51.378;0.094;2022-09-24T14:27:11;20.70;52.30
26254;DHT22;53339;51.378;0.094;2022-09-24T14:29:48;20.10;53.90
26254;DHT22;53339;51.378;0.094;2022-09-24T14:32:37;19.70;55.40
26254;DHT22;53339;51.378;0.094;2022-09-24T14:35:16;19.20;54.80
26254;DHT22;53339;51.378;0.094;2022-09-24T14:37:48;18.80;55.00
26254;DHT22;53339;51.378;0.094;2022-09-24T14:40:18;18.60;55.70
26254;DHT22;53339;51.378;0.094;2022-09-24T14:42:59;18.40;56.80
26254;DHT22;53339;51.378;0.094;2022-09-24T14:45:34;18.30;56.90
26254;DHT22;53339;51.378;0.094;2022-09-24T14:48:16;18.20;57.50
26254;DHT22;53339;51.378;0.094;2022-09-24T14:50:44;18.20;57.20
26254;DHT22;53339;51.378;0.094;2022-09-24T14:53:35;18.20;57.30
26254;DHT22;53339;51.378;0.094;2022-09-24T14:56:27;18.30;56.90
26254;DHT22;53339;51.378;0.094;2022-09-24T14:58:55;18.40;56.30
26254;DHT22;53339;51.378;0.094;2022-09-24T15:01:28;18.80;56.20
26254;DHT22;53339;51.378;0.094;2022-09-24T15:04:03;19.80;55.40
26254;DHT22;53339;51.378;0.094;2022-09-24T15:06:33;21.00;53.80
26254;DHT22;53339;51.378;0.094;2022-09-24T15:09:28;22.00;52.40
26254;DHT22;53339;51.378;0.094;2022-09-24T15:11:54;22.90;50.50
26254;DHT22;53339;51.378;0.094;2022-09-24T15:14:32;23.50;49.50
26254;DHT22;53339;51.378;0.094;2022-09-24T15:17:20;23.60;50.00
26254;DHT22;53339;51.378;0.094;2022-09-24T15:19:47;23.90;49.20
26254;DHT22;53339;51.378;0.094;2022-09-24T15:22:20;23.90;48.00
26254;DHT22;53339;51.378;0.094;2022-09-24T15:24:49;23.40;46.90
26254;DHT22;53339;51.378;0.094;2022-09-24T15:27:21;22.70;48.70
26254;DHT22;53339;51.378;0.094;2022-09-24T15:29:49;21.90;49.50
26254;DHT22;53339;51.378;0.094;2022-09-24T15:32:18;21.00;51.30
26254;DHT22;53339;51.378;0.094;2022-09-24T15:34:46;20.20;52.10
26254;DHT22;53339;51.378;0.094;2022-09-24T15:37:17;19.60;52.50
26254;DHT22;53339;51.378;0.094;2022-09-24T15:39:46;19.00;53.20
26254;DHT22;53339;51.378;0.094;2022-09-24T15:42:23;18.60;54.60
26254;DHT22;53339;51.378;0.094;2022-09-24T15:44:52;18.30;55.20
26254;DHT22;53339;51.378;0.094;2022-09-24T15:47:20;18.10;55.40
26254;DHT22;53339;51.378;0.094;2022-09-24T15:49:49;17.90;55.80
26254;DHT22;53339;51.378;0.094;2022-09-24T15:52:24;17.80;56.40
26254;DHT22;53339;51.378;0.094;2022-09-24T15:54:54;17.80;56.20
26254;DHT22;53339;51.378;0.094;2022-09-24T15:57:22;18.20;55.30
26254;DHT22;53339;51.378;0.094;2022-09-24T15:59:50;18.70;54.90
26254;DHT22;53339;51.378;0.094;2022-09-24T16:02:28;19.30;53.70
26254;DHT22;53339;51.378;0.094;2022-09-24T16:04:58;19.70;52.60
26254;DHT22;53339;51.378;0.094;2022-09-24T16:07:30;19.70;52.60
26254;DHT22;53339;51.378;0.094;2022-09-24T16:09:57;19.60;52.60
26254;DHT22;53339;51.378;0.094;2022-09-24T16:12:24;19.40;52.50
26254;DHT22;53339;51.378;0.094;2022-09-24T16:14:54;19.40;53.00
26254;DHT22;53339;51.378;0.094;2022-09-24T16:17:27;19.50;53.50
26254;DHT22;53339;51.378;0.094;2022-09-24T16:19:55;19.50;51.70
26254;DHT22;53339;51.378;0.094;2022-09-24T16:22:22;19.20;52.30
26254;DHT22;53339;51.378;0.094;2022-09-24T16:24:50;18.90;52.00
26254;DHT22;53339;51.378;0.094;2022-09-24T16:27:17;18.60;53.50
26254;DHT22;53339;51.378;0.094;2022-09-24T16:29:45;18.20;53.50
26254;DHT22;53339;51.378;0.094;2022-09-24T16:32:12;17.90;54.20
26254;DHT22;53339;51.378;0.094;2022-09-24T16:34:40;17.70;54.70
26254;DHT22;53339;51.378;0.094;2022-09-24T16:37:08;17.40;55.40
26254;DHT22;53339;51.378;0.094;2022-09-24T16:39:35;17.30;55.60
26254;DHT22;53339;51.378;0.094;2022-09-24T16:42:03;17.10;56.00
26254;DHT22;53339;51.378;0.094;2022-09-24T16:44:31;17.00;56.50
26254;DHT22;53339;51.378;0.094;2022-09-24T16:46:58;16.80;56.80
26254;DHT22;53339;51.378;0.094;2022-09-24T16:49:26;16.70;56.90
26254;DHT22;53339;51.378;0.094;2022-09-24T16:51:54;16.70;57.50
26254;DHT22;53339;51.378;0.094;2022-09-24T16:54:22;16.60;57.80
26254;DHT22;53339;51.378;0.094;2022-09-24T16:56:50;16.60;57.40
26254;DHT22;53339;51.378;0.094;2022-09-24T16:59:18;16.60;57.60
26254;DHT22;53339;51.378;0.094;2022-09-24T17:01:45;16.50;57.50
26254;DHT22;53339;51.378;0.094;2022-09-24T17:04:13;16.50;57.70
26254;DHT22;53339;51.378;0.094;2022-09-24T17:06:40;16.40;57.60
26254;DHT22;53339;51.378;0.094;2022-09-24T17:09:11;16.40;58.00
26254;DHT22;53339;51.378;0.094;2022-09-24T17:11:57;16.30;58.20
26254;DHT22;53339;51.378;0.094;2022-09-24T17:14:25;16.30;58.50
26254;DHT22;53339;51.378;0.094;2022-09-24T17:16:52;16.30;58.50
26254;DHT22;53339;51.378;0.094;2022-09-24T17:19:19;16.20;58.70
26254;DHT22;53339;51.378;0.094;2022-09-24T17:21:47;16.20;59.00
26254;DHT22;53339;51.378;0.094;2022-09-24T17:24:17;16.10;59.10
26254;DHT22;53339;51.378;0.094;2022-09-24T17:26:48;16.10;59.20
26254;DHT22;53339;51.378;0.094;2022-09-24T17:29:15;16.00;59.40
26254;DHT22;53339;51.378;0.094;2022-09-24T17:31:47;15.90;59.70
26254;DHT22;53339;51.378;0.094;2022-09-24T17:34:15;15.80;60.00
26254;DHT22;53339;51.378;0.094;2022-09-24T17:36:43;15.70;60.40
26254;DHT22;53339;51.378;0.094;2022-09-24T17:39:11;15.60;60.80
26254;DHT22;53339;51.378;0.094;2022-09-24T17:41:39;15.60;61.10